sensor_id;sensor_type;location;lat;lon;timestamp;temperature;humidity
1800;DHT22;919;48.274;12.292;2022-07-23T00:00:20;21.70;99.90
1800;DHT22;919;48.274;12.292;2022-07-23T00:02:47;21.60;99.90
1800;DHT22;919;48.274;12.292;2022-07-23T00:05:14;21.50;99.90
1800;DHT22;919;48.274;12.292;2022-07-23T00:07:41;21.60;99.90
1800;DHT22;919;48.274;12.292;2022-07-23T00:10:08;21.70;99.90
1800;DHT22;919;48.274;12.292;2022-07-23T00:12:35;21.80;99.90
1800;DHT22;919;48.274;12.292;2022-07-23T00:15:04;22.10;99.90
1800;DHT22;919;48.274;12.292;2022-07-23T00:17:32;22.40;99.90
1800;DHT22;919;48.274;12.292;2022-07-23T00:19:59;22.60;99.90
1800;DHT22;919;48.274;12.292;2022-07-23T00:22:26;22.50;99.90
1800;DHT22;919;48.274;12.292;2022-07-23T00:24:54;22.30;99.90
1800;DHT22;919;48.274;12.292;2022-07-23T00:27:21;22.20;99.90
1800;DHT22;919;48.274;12.292;2022-07-23T00:29:48;22.20;99.90
1800;DHT22;919;48.274;12.292;2022-07-23T00:32:15;22.10;99.90
1800;DHT22;919;48.274;12.292;2022-07-23T00:34:43;22.00;99.90
1800;DHT22;919;48.274;12.292;2022-07-23T00:37:10;21.90;99.90
1800;DHT22;919;48.274;12.292;2022-07-23T00:39:36;21.80;99.90
1800;DHT22;919;48.274;12.292;2022-07-23T00:42:03;21.80;99.90
1800;DHT22;919;48.274;12.292;2022-07-23T00:44:30;21.80;99.90
1800;DHT22;919;48.274;12.292;2022-07-23T00:46:58;21.80;99.90
1800;DHT22;919;48.274;12.292;2022-07-23T00:49:27;21.80;99.90
1800;DHT22;919;48.274;12.292;2022-07-23T00:51:56;21.80;99.90
1800;DHT22;919;48.274;12.292;2022-07-23T00:54:24;21.80;99.90
1800;DHT22;919;48.274;12.292;2022-07-23T00:56:52;21.70;99.90
1800;DHT22;919;48.274;12.292;2022-07-23T00:59:19;21.60;99.90
1800;DHT22;919;48.274;12.292;2022-07-23T01:01:46;21.60;99.90
1800;DHT22;919;48.274;12.292;2022-07-23T01:04:14;21.60;99.90
1800;DHT22;919;48.274;12.292;2022-07-23T01:06:43;21.70;99.90
1800;DHT22;919;48.274;12.292;2022-07-23T01:09:12;21.70;99.90
1800;DHT22;919;48.274;12.292;2022-07-23T01:11:39;21.70;99.90
1800;DHT22;919;48.274;12.292;2022-07-23T01:14:14;21.70;99.90
1800;DHT22;919;48.274;12.292;2022-07-23T01:16:42;21.70;99.90
1800;DHT22;919;48.274;12.292;2022-07-23T01:19:10;21.70;99.90
1800;DHT22;919;48.274;12.292;2022-07-23T01:21:40;21.60;99.90
1800;DHT22;919;48.274;12.292;2022-07-23T01:24:08;21.50;99.90
1800;DHT22;919;48.274;12.292;2022-07-23T01:26:36;21.50;99.90
1800;DHT22;919;48.274;12.292;2022-07-23T01:29:03;21.50;99.90
1800;DHT22;919;48.274;12.292;2022-07-23T01:31:31;21.40;99.90
1800;DHT22;919;48.274;12.292;2022-07-23T01:33:58;21.40;99.90
1800;DHT22;919;48.274;12.292;2022-07-23T01:36:25;21.40;99.90
1800;DHT22;919;48.274;12.292;2022-07-23T01:38:52;21.40;99.90
1800;DHT22;919;48.274;12.292;2022-07-23T01:41:20;21.40;99.90
1800;DHT22;919;48.274;12.292;2022-07-23T01:43:47;21.50;99.90
1800;DHT22;919;48.274;12.292;2022-07-23T01:46:13;21.50;99.90
1800;DHT22;919;48.274;12.292;2022-07-23T01:48:40;21.40;99.90
1800;DHT22;919;48.274;12.292;2022-07-23T01:51:07;21.40;99.90
1800;DHT22;919;48.274;12.292;2022-07-23T01:53:34;21.40;99.90
1800;DHT22;919;48.274;12.292;2022-07-23T01:56:01;21.40;99.90
1800;DHT22;919;48.274;12.292;2022-07-23T01:58:30;21.50;99.90
1800;DHT22;919;48.274;12.292;2022-07-23T02:00:57;21.60;99.90
1800;DHT22;919;48.274;12.292;2022-07-23T02:03:24;21.80;99.90
1800;DHT22;919;48.274;12.292;2022-07-23T02:05:51;21.90;99.90
1800;DHT22;919;48.274;12.292;2022-07-23T02:08:18;22.00;99.90
1800;DHT22;919;48.274;12.292;2022-07-23T02:10:45;22.20;99.90
1800;DHT22;919;48.274;12.292;2022-07-23T02:13:12;22.30;99.90
1800;DHT22;919;48.274;12.292;2022-07-23T02:15:40;22.50;99.90
1800;DHT22;919;48.274;12.292;2022-07-23T02:18:07;22.50;99.90
1800;DHT22;919;48.274;12.292;2022-07-23T02:20:34;22.60;99.90
1800;DHT22;919;48.274;12.292;2022-07-23T02:23:04;22.60;99.90
1800;DHT22;919;48.274;12.292;2022-07-23T02:25:30;22.60;99.90
1800;DHT22;919;48.274;12.292;2022-07-23T02:27:57;22.60;99.90
1800;DHT22;919;48.274;12.292;2022-07-23T02:30:24;22.50;99.90
1800;DHT22;919;48.274;12.292;2022-07-23T02:32:52;22.50;99.90
1800;DHT22;919;48.274;12.292;2022-07-23T02:35:19;22.50;99.90
1800;DHT22;919;48.274;12.292;2022-07-23T02:37:45;22.50;99.90
1800;DHT22;919;48.274;12.292;2022-07-23T02:40:12;22.50;99.90
1800;DHT22;919;48.274;12.292;2022-07-23T02:42:39;22.50;99.90
1800;DHT22;919;48.274;12.292;2022-07-23T02:45:06;22.50;99.90
1800;DHT22;919;48.274;12.292;2022-07-23T02:47:33;22.50;99.90
1800;DHT22;919;48.274;12.292;2022-07-23T02:50:02;22.50;99.90
1800;DHT22;919;48.274;12.292;2022-07-23T02:52:30;22.50;99.90
1800;DHT22;919;48.274;12.292;2022-07-23T02:54:57;22.50;99.90
1800;DHT22;919;48.274;12.292;2022-07-23T02:57:24;22.50;99.90
1800;DHT22;919;48.274;12.292;2022-07-23T02:59:50;22.50;99.90
1800;DHT22;919;48.274;12.292;2022-07-23T03:02:17;22.40;99.90
1800;DHT22;919;48.274;12.292;2022-07-23T03:04:44;22.40;99.90
1800;DHT22;919;48.274;12.292;2022-07-23T03:07:12;22.30;99.90
1800;DHT22;919;48.274;12.292;2022-07-23T03:09:39;22.30;99.90
1800;DHT22;919;48.274;12.292;2022-07-23T03:12:06;22.30;99.90
1800;DHT22;919;48.274;12.292;2022-07-23T03:14:33;22.20;99.90
1800;DHT22;919;48.274;12.292;2022-07-23T03:17:00;22.10;99.90
1800;DHT22;919;48.274;12.292;2022-07-23T03:19:26;22.10;99.90
1800;DHT22;919;48.274;12.292;2022-07-23T03:21:53;22.10;99.90
1800;DHT22;919;48.274;12.292;2022-07-23T03:24:21;22.00;99.90
1800;DHT22;919;48.274;12.292;2022-07-23T03:26:49;22.00;99.90
1800;DHT22;919;48.274;12.292;2022-07-23T03:29:16;22.00;99.90
1800;DHT22;919;48.274;12.292;2022-07-23T03:31:43;21.90;99.90
1800;DHT22;919;48.274;12.292;2022-07-23T03:34:10;22.00;99.90
1800;DHT22;919;48.274;12.292;2022-07-23T03:36:36;22.00;99.90
1800;DHT22;919;48.274;12.292;2022-07-23T03:39:03;22.00;99.90
1800;DHT22;919;48.274;12.292;2022-07-23T03:41:31;22.00;99.90
1800;DHT22;919;48.274;12.292;2022-07-23T03:43:58;22.00;99.90
1800;DHT22;919;48.274;12.292;2022-07-23T03:46:24;21.90;99.90
1800;DHT22;919;48.274;12.292;2022-07-23T03:48:51;21.80;99.90
1800;DHT22;919;48.274;12.292;2022-07-23T03:51:18;21.70;99.90
1800;DHT22;919;48.274;12.292;2022-07-23T03:53:44;21.60;99.90
1800;DHT22;919;48.274;12.292;2022-07-23T03:56:11;21.60;99.90
1800;DHT22;919;48.274;12.292;2022-07-23T03:58:39;21.50;99.90
1800;DHT22;919;48.274;12.292;2022-07-23T04:01:06;21.60;99.90
1800;DHT22;919;48.274;12.292;2022-07-23T04:03:33;21.60;99.90
1800;DHT22;919;48.274;12.292;2022-07-23T04:06:00;21.50;99.90
1800;DHT22;919;48.274;12.292;2022-07-23T04:08:26;21.50;99.90
1800;DHT22;919;48.274;12.292;2022-07-23T04:10:53;21.30;99.90
1800;DHT22;919;48.274;12.292;2022-07-23T04:13:20;21.20;99.90
1800;DHT22;919;48.274;12.292;2022-07-23T04:15:48;21.20;99.90
1800;DHT22;919;48.274;12.292;2022-07-23T04:18:16;21.10;99.90
1800;DHT22;919;48.274;12.292;2022-07-23T04:20:42;21.10;99.90
1800;DHT22;919;48.274;12.292;2022-07-23T04:23:09;21.00;99.90
1800;DHT22;919;48.274;12.292;2022-07-23T04:25:36;20.90;99.90
1800;DHT22;919;48.274;12.292;2022-07-23T04:28:04;20.80;99.90
1800;DHT22;919;48.274;12.292;2022-07-23T04:30:31;20.80;99.90
1800;DHT22;919;48.274;12.292;2022-07-23T04:32:59;20.70;99.90
1800;DHT22;919;48.274;12.292;2022-07-23T04:35:25;20.80;99.90
1800;DHT22;919;48.274;12.292;2022-07-23T04:37:52;20.80;99.90
1800;DHT22;919;48.274;12.292;2022-07-23T04:40:19;20.70;99.90
1800;DHT22;919;48.274;12.292;2022-07-23T04:42:46;20.70;99.90
1800;DHT22;919;48.274;12.292;2022-07-23T04:45:12;21.00;99.90
1800;DHT22;919;48.274;12.292;2022-07-23T04:47:39;21.00;99.90
1800;DHT22;919;48.274;12.292;2022-07-23T04:50:07;21.00;99.90
1800;DHT22;919;48.274;12.292;2022-07-23T04:52:34;21.00;99.90
1800;DHT22;919;48.274;12.292;2022-07-23T04:55:01;21.00;99.90
1800;DHT22;919;48.274;12.292;2022-07-23T04:57:28;20.90;99.90
1800;DHT22;919;48.274;12.292;2022-07-23T04:59:54;20.90;99.90
1800;DHT22;919;48.274;12.292;2022-07-23T05:02:21;20.90;99.90
1800;DHT22;919;48.274;12.292;2022-07-23T05:04:48;20.90;99.90
1800;DHT22;919;48.274;12.292;2022-07-23T05:07:16;21.00;99.90
1800;DHT22;919;48.274;12.292;2022-07-23T05:09:43;21.00;99.90
1800;DHT22;919;48.274;12.292;2022-07-23T05:12:09;21.10;99.90
1800;DHT22;919;48.274;12.292;2022-07-23T05:14:36;21.20;99.90
1800;DHT22;919;48.274;12.292;2022-07-23T05:17:03;21.20;99.90
1800;DHT22;919;48.274;12.292;2022-07-23T05:19:29;21.10;99.90
1800;DHT22;919;48.274;12.292;2022-07-23T05:21:56;21.00;99.90
1800;DHT22;919;48.274;12.292;2022-07-23T05:24:24;21.00;99.90
1800;DHT22;919;48.274;12.292;2022-07-23T05:26:51;21.00;99.90
1800;DHT22;919;48.274;12.292;2022-07-23T05:29:18;21.00;99.90
1800;DHT22;919;48.274;12.292;2022-07-23T05:31:45;21.10;99.90
1800;DHT22;919;48.274;12.292;2022-07-23T05:34:11;21.20;99.90
1800;DHT22;919;48.274;12.292;2022-07-23T05:36:38;21.20;99.90
1800;DHT22;919;48.274;12.292;2022-07-23T05:39:05;21.30;99.90
1800;DHT22;919;48.274;12.292;2022-07-23T05:41:33;21.40;99.90
1800;DHT22;919;48.274;12.292;2022-07-23T05:44:00;21.50;99.90
1800;DHT22;919;48.274;12.292;2022-07-23T05:46:26;21.60;99.90
1800;DHT22;919;48.274;12.292;2022-07-23T05:48:53;21.70;99.90
1800;DHT22;919;48.274;12.292;2022-07-23T05:51:21;21.80;99.90
1800;DHT22;919;48.274;12.292;2022-07-23T05:53:48;21.80;99.90
1800;DHT22;919;48.274;12.292;2022-07-23T05:56:15;21.90;99.90
1800;DHT22;919;48.274;12.292;2022-07-23T05:58:43;21.90;99.90
1800;DHT22;919;48.274;12.292;2022-07-23T06:01:10;22.00;99.90
1800;DHT22;919;48.274;12.292;2022-07-23T06:03:37;22.10;99.90
1800;DHT22;919;48.274;12.292;2022-07-23T06:06:04;22.20;99.90
1800;DHT22;919;48.274;12.292;2022-07-23T06:08:31;22.30;99.90
1800;DHT22;919;48.274;12.292;2022-07-23T06:10:58;22.30;99.90
1800;DHT22;919;48.274;12.292;2022-07-23T06:13:24;22.40;99.90
1800;DHT22;919;48.274;12.292;2022-07-23T06:15:52;22.40;99.90
1800;DHT22;919;48.274;12.292;2022-07-23T06:18:19;22.40;99.90
1800;DHT22;919;48.274;12.292;2022-07-23T06:20:46;22.30;99.90
1800;DHT22;919;48.274;12.292;2022-07-23T06:23:12;22.20;99.90
1800;DHT22;919;48.274;12.292;2022-07-23T06:25:39;22.30;99.90
1800;DHT22;919;48.274;12.292;2022-07-23T06:28:06;22.30;99.90
1800;DHT22;919;48.274;12.292;2022-07-23T06:30:33;22.30;99.90
1800;DHT22;919;48.274;12.292;2022-07-23T06:33:01;22.40;99.90
1800;DHT22;919;48.274;12.292;2022-07-23T06:35:27;22.40;99.90
1800;DHT22;919;48.274;12.292;2022-07-23T06:37:54;22.50;99.90
1800;DHT22;919;48.274;12.292;2022-07-23T06:40:21;22.60;99.90
1800;DHT22;919;48.274;12.292;2022-07-23T06:42:48;22.60;99.90
1800;DHT22;919;48.274;12.292;2022-07-23T06:45:14;22.60;99.90
1800;DHT22;919;48.274;12.292;2022-07-23T06:47:41;22.50;99.90
1800;DHT22;919;48.274;12.292;2022-07-23T06:50:10;22.50;99.90
1800;DHT22;919;48.274;12.292;2022-07-23T06:52:36;22.60;99.90
1800;DHT22;919;48.274;12.292;2022-07-23T06:55:04;22.60;99.90
1800;DHT22;919;48.274;12.292;2022-07-23T06:57:31;22.60;99.90
1800;DHT22;919;48.274;12.292;2022-07-23T06:59:58;22.70;99.90
1800;DHT22;919;48.274;12.292;2022-07-23T07:02:24;22.80;99.90
1800;DHT22;919;48.274;12.292;2022-07-23T07:04:51;22.90;99.90
1800;DHT22;919;48.274;12.292;2022-07-23T07:07:19;23.00;99.90
1800;DHT22;919;48.274;12.292;2022-07-23T07:09:46;23.00;99.90
1800;DHT22;919;48.274;12.292;2022-07-23T07:12:13;23.20;99.90
1800;DHT22;919;48.274;12.292;2022-07-23T07:14:40;23.20;99.90
1800;DHT22;919;48.274;12.292;2022-07-23T07:17:07;23.30;99.90
1800;DHT22;919;48.274;12.292;2022-07-23T07:19:34;23.40;99.90
1800;DHT22;919;48.274;12.292;2022-07-23T07:22:00;23.50;99.90
1800;DHT22;919;48.274;12.292;2022-07-23T07:24:28;23.50;99.90
1800;DHT22;919;48.274;12.292;2022-07-23T07:26:55;23.60;99.90
1800;DHT22;919;48.274;12.292;2022-07-23T07:29:22;23.60;99.90
1800;DHT22;919;48.274;12.292;2022-07-23T07:31:49;23.70;99.90
1800;DHT22;919;48.274;12.292;2022-07-23T07:34:15;23.70;99.90
1800;DHT22;919;48.274;12.292;2022-07-23T07:36:42;23.70;99.90
1800;DHT22;919;48.274;12.292;2022-07-23T07:39:09;23.60;99.90
1800;DHT22;919;48.274;12.292;2022-07-23T07:41:37;23.60;99.90
1800;DHT22;919;48.274;12.292;2022-07-23T07:44:04;23.60;99.90
1800;DHT22;919;48.274;12.292;2022-07-23T07:46:31;23.60;99.90
1800;DHT22;919;48.274;12.292;2022-07-23T07:48:57;23.70;99.90
1800;DHT22;919;48.274;12.292;2022-07-23T07:51:24;23.80;99.90
1800;DHT22;919;48.274;12.292;2022-07-23T07:53:51;23.90;99.90
1800;DHT22;919;48.274;12.292;2022-07-23T07:56:18;24.10;99.90
1800;DHT22;919;48.274;12.292;2022-07-23T07:58:46;24.30;99.90
1800;DHT22;919;48.274;12.292;2022-07-23T08:01:13;24.50;99.90
1800;DHT22;919;48.274;12.292;2022-07-23T08:03:40;24.50;99.90
1800;DHT22;919;48.274;12.292;2022-07-23T08:06:07;24.60;99.90
1800;DHT22;919;48.274;12.292;2022-07-23T08:08:34;24.60;99.90
1800;DHT22;919;48.274;12.292;2022-07-23T08:11:00;24.60;99.90
1800;DHT22;919;48.274;12.292;2022-07-23T08:13:27;24.70;99.90
1800;DHT22;919;48.274;12.292;2022-07-23T08:15:55;24.70;99.90
1800;DHT22;919;48.274;12.292;2022-07-23T08:18:22;24.70;99.90
1800;DHT22;919;48.274;12.292;2022-07-23T08:20:49;24.80;99.90
1800;DHT22;919;48.274;12.292;2022-07-23T08:23:15;24.90;99.90
1800;DHT22;919;48.274;12.292;2022-07-23T08:25:45;24.90;99.90
1800;DHT22;919;48.274;12.292;2022-07-23T08:28:13;24.90;99.90
1800;DHT22;919;48.274;12.292;2022-07-23T08:30:42;24.80;99.90
1800;DHT22;919;48.274;12.292;2022-07-23T08:33:12;24.80;99.90
1800;DHT22;919;48.274;12.292;2022-07-23T08:35:40;24.80;99.90
1800;DHT22;919;48.274;12.292;2022-07-23T08:38:09;24.80;99.90
1800;DHT22;919;48.274;12.292;2022-07-23T08:40:38;24.70;99.90
1800;DHT22;919;48.274;12.292;2022-07-23T08:43:06;24.70;99.90
1800;DHT22;919;48.274;12.292;2022-07-23T08:45:36;24.60;99.90
1800;DHT22;919;48.274;12.292;2022-07-23T08:48:06;24.60;99.90
1800;DHT22;919;48.274;12.292;2022-07-23T08:50:35;24.50;99.90
1800;DHT22;919;48.274;12.292;2022-07-23T08:53:06;24.40;99.90
1800;DHT22;919;48.274;12.292;2022-07-23T08:55:33;24.30;99.90
1800;DHT22;919;48.274;12.292;2022-07-23T08:58:00;24.30;99.90
1800;DHT22;919;48.274;12.292;2022-07-23T09:00:28;24.20;99.90
1800;DHT22;919;48.274;12.292;2022-07-23T09:02:55;24.10;99.90
1800;DHT22;919;48.274;12.292;2022-07-23T09:05:22;24.00;99.90
1800;DHT22;919;48.274;12.292;2022-07-23T09:08:07;24.00;99.90
1800;DHT22;919;48.274;12.292;2022-07-23T09:10:52;24.00;99.90
1800;DHT22;919;48.274;12.292;2022-07-23T09:13:31;23.90;99.90
1800;DHT22;919;48.274;12.292;2022-07-23T09:15:59;23.90;99.90
1800;DHT22;919;48.274;12.292;2022-07-23T09:18:35;23.90;99.90
1800;DHT22;919;48.274;12.292;2022-07-23T09:21:08;23.80;99.90
1800;DHT22;919;48.274;12.292;2022-07-23T09:23:40;23.80;99.90
1800;DHT22;919;48.274;12.292;2022-07-23T09:26:26;23.70;99.90
1800;DHT22;919;48.274;12.292;2022-07-23T09:28:59;23.70;99.90
1800;DHT22;919;48.274;12.292;2022-07-23T09:31:42;23.50;99.90
1800;DHT22;919;48.274;12.292;2022-07-23T09:34:13;23.50;99.90
1800;DHT22;919;48.274;12.292;2022-07-23T09:36:40;23.60;99.90
1800;DHT22;919;48.274;12.292;2022-07-23T09:39:10;23.70;99.90
1800;DHT22;919;48.274;12.292;2022-07-23T09:41:39;23.90;99.90
1800;DHT22;919;48.274;12.292;2022-07-23T09:44:11;24.00;99.90
1800;DHT22;919;48.274;12.292;2022-07-23T09:46:38;24.20;99.90
1800;DHT22;919;48.274;12.292;2022-07-23T09:49:17;24.30;99.90
1800;DHT22;919;48.274;12.292;2022-07-23T09:51:50;24.30;99.90
1800;DHT22;919;48.274;12.292;2022-07-23T09:54:28;24.30;99.90
1800;DHT22;919;48.274;12.292;2022-07-23T09:56:59;24.20;99.90
1800;DHT22;919;48.274;12.292;2022-07-23T09:59:28;24.20;99.90
1800;DHT22;919;48.274;12.292;2022-07-23T10:01:57;24.20;99.90
1800;DHT22;919;48.274;12.292;2022-07-23T10:04:27;24.10;99.90
1800;DHT22;919;48.274;12.292;2022-07-23T10:06:56;24.10;99.90
1800;DHT22;919;48.274;12.292;2022-07-23T10:09:26;24.10;99.90
1800;DHT22;919;48.274;12.292;2022-07-23T10:11:58;24.20;99.90
1800;DHT22;919;48.274;12.292;2022-07-23T10:14:36;24.30;99.90
1800;DHT22;919;48.274;12.292;2022-07-23T10:17:04;24.40;99.90
1800;DHT22;919;48.274;12.292;2022-07-23T10:19:32;24.60;99.90
1800;DHT22;919;48.274;12.292;2022-07-23T10:22:01;24.60;99.90
1800;DHT22;919;48.274;12.292;2022-07-23T10:24:40;24.80;99.90
1800;DHT22;919;48.274;12.292;2022-07-23T10:27:26;25.00;99.90
1800;DHT22;919;48.274;12.292;2022-07-23T10:30:02;25.20;99.90
1800;DHT22;919;48.274;12.292;2022-07-23T10:32:40;25.20;99.90
1800;DHT22;919;48.274;12.292;2022-07-23T10:35:18;25.30;99.90
1800;DHT22;919;48.274;12.292;2022-07-23T10:37:50;25.40;99.90
1800;DHT22;919;48.274;12.292;2022-07-23T10:40:20;25.50;99.90
1800;DHT22;919;48.274;12.292;2022-07-23T10:42:49;25.40;99.90
1800;DHT22;919;48.274;12.292;2022-07-23T10:45:26;25.60;99.90
1800;DHT22;919;48.274;12.292;2022-07-23T10:47:53;25.80;99.90
1800;DHT22;919;48.274;12.292;2022-07-23T10:50:22;26.10;99.90
1800;DHT22;919;48.274;12.292;2022-07-23T10:53:13;26.10;99.90
1800;DHT22;919;48.274;12.292;2022-07-23T10:55:45;26.20;99.90
1800;DHT22;919;48.274;12.292;2022-07-23T10:58:21;26.70;99.90
1800;DHT22;919;48.274;12.292;2022-07-23T11:00:49;27.20;99.90
1800;DHT22;919;48.274;12.292;2022-07-23T11:03:31;27.60;99.90
1800;DHT22;919;48.274;12.292;2022-07-23T11:06:00;27.80;99.90
1800;DHT22;919;48.274;12.292;2022-07-23T11:08:27;27.70;99.90
1800;DHT22;919;48.274;12.292;2022-07-23T11:11:08;27.70;99.90
1800;DHT22;919;48.274;12.292;2022-07-23T11:13:44;27.60;99.90
1800;DHT22;919;48.274;12.292;2022-07-23T11:16:23;27.60;99.90
1800;DHT22;919;48.274;12.292;2022-07-23T11:19:05;27.80;99.90
1800;DHT22;919;48.274;12.292;2022-07-23T11:21:49;28.10;99.90
1800;DHT22;919;48.274;12.292;2022-07-23T11:24:24;28.50;99.90
1800;DHT22;919;48.274;12.292;2022-07-23T11:26:55;28.30;99.90
1800;DHT22;919;48.274;12.292;2022-07-23T11:29:45;28.20;99.90
1800;DHT22;919;48.274;12.292;2022-07-23T11:32:25;28.10;99.90
1800;DHT22;919;48.274;12.292;2022-07-23T11:34:54;28.00;99.90
1800;DHT22;919;48.274;12.292;2022-07-23T11:37:35;27.70;99.90
1800;DHT22;919;48.274;12.292;2022-07-23T11:40:06;27.80;99.90
1800;DHT22;919;48.274;12.292;2022-07-23T11:42:36;27.80;99.90
1800;DHT22;919;48.274;12.292;2022-07-23T11:45:05;27.80;99.90
1800;DHT22;919;48.274;12.292;2022-07-23T11:47:31;27.80;99.90
1800;DHT22;919;48.274;12.292;2022-07-23T11:50:00;27.90;99.90
1800;DHT22;919;48.274;12.292;2022-07-23T11:52:28;28.10;99.90
1800;DHT22;919;48.274;12.292;2022-07-23T11:54:57;28.20;99.90
1800;DHT22;919;48.274;12.292;2022-07-23T11:57:26;28.20;99.90
1800;DHT22;919;48.274;12.292;2022-07-23T11:59:57;28.40;99.90
1800;DHT22;919;48.274;12.292;2022-07-23T12:02:26;28.60;99.90
1800;DHT22;919;48.274;12.292;2022-07-23T12:04:53;28.80;99.90
1800;DHT22;919;48.274;12.292;2022-07-23T12:07:25;29.00;99.90
1800;DHT22;919;48.274;12.292;2022-07-23T12:09:52;29.10;99.90
1800;DHT22;919;48.274;12.292;2022-07-23T12:12:19;29.00;99.90
1800;DHT22;919;48.274;12.292;2022-07-23T12:14:51;29.00;99.90
1800;DHT22;919;48.274;12.292;2022-07-23T12:17:20;29.00;99.90
1800;DHT22;919;48.274;12.292;2022-07-23T12:19:47;28.90;99.90
1800;DHT22;919;48.274;12.292;2022-07-23T12:22:14;28.80;99.90
1800;DHT22;919;48.274;12.292;2022-07-23T12:24:55;28.50;99.90
1800;DHT22;919;48.274;12.292;2022-07-23T12:27:23;28.30;99.90
1800;DHT22;919;48.274;12.292;2022-07-23T12:29:50;28.20;99.90
1800;DHT22;919;48.274;12.292;2022-07-23T12:32:23;28.10;99.90
1800;DHT22;919;48.274;12.292;2022-07-23T12:35:01;28.20;99.90
1800;DHT22;919;48.274;12.292;2022-07-23T12:37:31;28.20;99.90
1800;DHT22;919;48.274;12.292;2022-07-23T12:39:59;28.20;99.90
1800;DHT22;919;48.274;12.292;2022-07-23T12:42:45;28.40;99.90
1800;DHT22;919;48.274;12.292;2022-07-23T12:45:12;28.40;99.90
1800;DHT22;919;48.274;12.292;2022-07-23T12:48:03;28.40;99.90
1800;DHT22;919;48.274;12.292;2022-07-23T12:50:40;28.40;99.90
1800;DHT22;919;48.274;12.292;2022-07-23T12:53:09;28.30;99.90
1800;DHT22;919;48.274;12.292;2022-07-23T12:55:38;28.30;99.90
1800;DHT22;919;48.274;12.292;2022-07-23T12:58:06;28.60;99.90
1800;DHT22;919;48.274;12.292;2022-07-23T13:00:58;28.40;99.90
1800;DHT22;919;48.274;12.292;2022-07-23T13:03:28;28.30;99.90
1800;DHT22;919;48.274;12.292;2022-07-23T13:05:56;28.00;99.90
1800;DHT22;919;48.274;12.292;2022-07-23T13:08:24;27.60;99.90
1800;DHT22;919;48.274;12.292;2022-07-23T13:10:51;27.30;99.90
1800;DHT22;919;48.274;12.292;2022-07-23T13:13:20;27.20;99.90
1800;DHT22;919;48.274;12.292;2022-07-23T13:15:47;27.00;99.90
1800;DHT22;919;48.274;12.292;2022-07-23T13:18:14;26.80;99.90
1800;DHT22;919;48.274;12.292;2022-07-23T13:20:43;26.70;99.90
1800;DHT22;919;48.274;12.292;2022-07-23T13:23:10;26.60;99.90
1800;DHT22;919;48.274;12.292;2022-07-23T13:25:37;26.50;99.90
1800;DHT22;919;48.274;12.292;2022-07-23T13:28:04;26.50;99.90
1800;DHT22;919;48.274;12.292;2022-07-23T13:30:31;26.40;99.90
1800;DHT22;919;48.274;12.292;2022-07-23T13:32:59;26.30;99.90
1800;DHT22;919;48.274;12.292;2022-07-23T13:35:26;26.30;99.90
1800;DHT22;919;48.274;12.292;2022-07-23T13:37:54;26.30;99.90
1800;DHT22;919;48.274;12.292;2022-07-23T13:40:21;26.30;99.90
1800;DHT22;919;48.274;12.292;2022-07-23T13:42:48;26.10;99.90
1800;DHT22;919;48.274;12.292;2022-07-23T13:45:15;26.10;99.90
1800;DHT22;919;48.274;12.292;2022-07-23T13:47:41;25.90;99.90
1800;DHT22;919;48.274;12.292;2022-07-23T13:50:08;25.90;99.90
1800;DHT22;919;48.274;12.292;2022-07-23T13:52:35;25.80;99.90
1800;DHT22;919;48.274;12.292;2022-07-23T13:55:05;25.80;99.90
1800;DHT22;919;48.274;12.292;2022-07-23T13:57:33;25.60;99.90
1800;DHT22;919;48.274;12.292;2022-07-23T14:00:00;25.60;99.90
1800;DHT22;919;48.274;12.292;2022-07-23T14:02:28;25.60;99.90
1800;DHT22;919;48.274;12.292;2022-07-23T14:04:55;25.70;99.90
1800;DHT22;919;48.274;12.292;2022-07-23T14:07:22;25.70;99.90
1800;DHT22;919;48.274;12.292;2022-07-23T14:09:49;25.70;99.90
1800;DHT22;919;48.274;12.292;2022-07-23T14:12:17;25.70;99.90
1800;DHT22;919;48.274;12.292;2022-07-23T14:14:44;25.80;99.90
1800;DHT22;919;48.274;12.292;2022-07-23T14:17:10;25.80;99.90
1800;DHT22;919;48.274;12.292;2022-07-23T14:19:37;25.80;99.90
1800;DHT22;919;48.274;12.292;2022-07-23T14:22:04;25.90;99.90
1800;DHT22;919;48.274;12.292;2022-07-23T14:24:31;26.00;99.90
1800;DHT22;919;48.274;12.292;2022-07-23T14:26:59;26.10;99.90
1800;DHT22;919;48.274;12.292;2022-07-23T14:29:27;26.10;99.90
1800;DHT22;919;48.274;12.292;2022-07-23T14:31:54;26.10;99.90
1800;DHT22;919;48.274;12.292;2022-07-23T14:34:21;26.10;99.90
1800;DHT22;919;48.274;12.292;2022-07-23T14:36:48;26.20;99.90
1800;DHT22;919;48.274;12.292;2022-07-23T14:39:14;26.30;99.90
1800;DHT22;919;48.274;12.292;2022-07-23T14:41:41;26.50;99.90
1800;DHT22;919;48.274;12.292;2022-07-23T14:44:08;26.60;99.90
1800;DHT22;919;48.274;12.292;2022-07-23T14:46:37;26.60;99.90
1800;DHT22;919;48.274;12.292;2022-07-23T14:49:04;26.70;99.90
1800;DHT22;919;48.274;12.292;2022-07-23T14:51:31;26.70;99.90
1800;DHT22;919;48.274;12.292;2022-07-23T14:53:58;26.60;99.90
1800;DHT22;919;48.274;12.292;2022-07-23T14:56:24;26.50;99.90
1800;DHT22;919;48.274;12.292;2022-07-23T14:58:51;26.40;99.90
1800;DHT22;919;48.274;12.292;2022-07-23T15:01:21;26.30;99.90
1800;DHT22;919;48.274;12.292;2022-07-23T15:03:49;26.10;99.90
1800;DHT22;919;48.274;12.292;2022-07-23T15:06:17;26.00;99.90
1800;DHT22;919;48.274;12.292;2022-07-23T15:08:44;25.90;99.90
1800;DHT22;919;48.274;12.292;2022-07-23T15:11:11;25.80;99.90
1800;DHT22;919;48.274;12.292;2022-07-23T15:13:38;25.80;99.90
1800;DHT22;919;48.274;12.292;2022-07-23T15:16:06;25.70;99.90
1800;DHT22;919;48.274;12.292;2022-07-23T15:18:32;25.70;99.90
1800;DHT22;919;48.274;12.292;2022-07-23T15:21:01;25.60;99.90
1800;DHT22;919;48.274;12.292;2022-07-23T15:23:28;25.60;99.90
1800;DHT22;919;48.274;12.292;2022-07-23T15:25:54;25.50;99.90
1800;DHT22;919;48.274;12.292;2022-07-23T15:28:22;25.50;99.90
1800;DHT22;919;48.274;12.292;2022-07-23T15:30:49;25.50;99.90
1800;DHT22;919;48.274;12.292;2022-07-23T15:33:16;25.60;99.90
1800;DHT22;919;48.274;12.292;2022-07-23T15:35:43;25.50;99.90
1800;DHT22;919;48.274;12.292;2022-07-23T15:38:12;25.50;99.90
1800;DHT22;919;48.274;12.292;2022-07-23T15:40:39;25.60;99.90
1800;DHT22;919;48.274;12.292;2022-07-23T15:43:06;25.70;99.90
1800;DHT22;919;48.274;12.292;2022-07-23T15:45:33;25.80;99.90
1800;DHT22;919;48.274;12.292;2022-07-23T15:47:59;25.80;99.90
1800;DHT22;919;48.274;12.292;2022-07-23T15:50:26;25.90;99.90
1800;DHT22;919;48.274;12.292;2022-07-23T15:52:53;25.90;99.90
1800;DHT22;919;48.274;12.292;2022-07-23T15:55:21;26.00;99.90
1800;DHT22;919;48.274;12.292;2022-07-23T15:57:49;26.10;99.90
1800;DHT22;919;48.274;12.292;2022-07-23T16:00:16;26.10;99.90
1800;DHT22;919;48.274;12.292;2022-07-23T16:02:43;26.20;99.90
1800;DHT22;919;48.274;12.292;2022-07-23T16:05:10;26.40;99.90
1800;DHT22;919;48.274;12.292;2022-07-23T16:07:54;26.70;99.90
1800;DHT22;919;48.274;12.292;2022-07-23T16:10:22;27.10;99.90